createdAt,value
2019-01-27T00:00:47.483Z,971.59
2019-01-27T00:01:47.616Z,971.55
2019-01-27T00:02:47.738Z,971.60
2019-01-27T00:03:47.865Z,971.53
2019-01-27T00:04:47.996Z,971.54
2019-01-27T00:05:48.133Z,971.45
2019-01-27T00:06:48.252Z,971.50
2019-01-27T00:07:48.382Z,971.40
2019-01-27T00:08:48.517Z,971.34
2019-01-27T00:09:48.639Z,971.41
2019-01-27T00:10:48.768Z,971.34
2019-01-27T00:11:48.897Z,971.30
2019-01-27T00:12:49.037Z,971.22
2019-01-27T00:13:49.170Z,971.25
2019-01-27T00:14:49.297Z,971.26
2019-01-27T00:15:49.428Z,971.24
2019-01-27T00:16:49.559Z,971.04
2019-01-27T00:17:49.681Z,971.27
2019-01-27T00:18:49.807Z,971.20
2019-01-27T00:19:49.988Z,971.15
2019-01-27T00:20:50.119Z,971.27
2019-01-27T00:21:50.243Z,971.27
2019-01-27T00:22:50.371Z,971.21
2019-01-27T00:23:50.485Z,971.12
2019-01-27T00:24:50.626Z,971.20
2019-01-27T00:25:50.750Z,970.94
2019-01-27T00:26:50.885Z,970.96
2019-01-27T00:27:51.005Z,970.98
2019-01-27T00:28:51.143Z,970.94
2019-01-27T00:29:51.265Z,970.96
2019-01-27T00:30:51.400Z,970.94
2019-01-27T00:31:51.531Z,970.91
2019-01-27T00:32:51.644Z,970.90
2019-01-27T00:33:51.812Z,970.87
2019-01-27T00:34:51.936Z,970.89
2019-01-27T00:35:52.060Z,970.81
2019-01-27T00:36:52.220Z,970.99
2019-01-27T00:37:52.345Z,970.75
2019-01-27T00:38:52.470Z,970.70
2019-01-27T00:39:52.601Z,970.67
2019-01-27T00:40:52.737Z,970.67
2019-01-27T00:41:52.855Z,970.61
2019-01-27T00:42:52.975Z,970.61
2019-01-27T00:43:53.127Z,970.71
2019-01-27T00:44:53.252Z,970.63
2019-01-27T00:45:53.392Z,970.62
2019-01-27T00:46:53.516Z,970.67
2019-01-27T00:47:53.649Z,970.73
2019-01-27T00:48:53.771Z,970.73
2019-01-27T00:49:53.902Z,970.60
2019-01-27T00:50:54.033Z,970.53
2019-01-27T00:51:54.158Z,970.50
2019-01-27T00:52:54.282Z,970.54
2019-01-27T00:53:54.413Z,970.48
2019-01-27T00:54:54.538Z,970.48
2019-01-27T00:55:54.664Z,970.38
2019-01-27T00:56:54.786Z,970.42
2019-01-27T00:57:54.922Z,970.40
2019-01-27T00:58:55.039Z,970.42
2019-01-27T00:59:55.168Z,970.41
2019-01-27T01:00:55.294Z,970.38
2019-01-27T01:01:55.477Z,970.31
2019-01-27T01:02:55.550Z,970.26
2019-01-27T01:03:55.679Z,970.28
2019-01-27T01:04:55.795Z,970.31
2019-01-27T01:07:28.467Z,970.17
2019-01-27T01:08:27.886Z,970.10
2019-01-27T01:09:28.015Z,970.18
2019-01-27T01:10:28.147Z,970.09
2019-01-27T01:11:28.281Z,970.09
2019-01-27T01:12:28.402Z,970.07
2019-01-27T01:13:28.527Z,970.12
2019-01-27T01:14:28.661Z,970.09
2019-01-27T01:15:28.784Z,970.04
2019-01-27T01:16:28.924Z,969.96
2019-01-27T01:17:29.060Z,970.00
2019-01-27T01:18:29.183Z,970.08
2019-01-27T01:19:29.310Z,969.97
2019-01-27T01:20:29.437Z,969.89
2019-01-27T01:21:29.564Z,969.92
2019-01-27T01:22:29.686Z,969.78
2019-01-27T01:23:29.818Z,969.76
2019-01-27T01:24:29.951Z,969.84
2019-01-27T01:25:30.078Z,969.80
2019-01-27T01:26:30.210Z,969.76
2019-01-27T01:27:30.341Z,969.67
2019-01-27T01:28:30.460Z,969.71
2019-01-27T01:29:30.599Z,969.77
2019-01-27T01:30:30.716Z,969.75
2019-01-27T01:31:30.848Z,969.80
2019-01-27T01:32:30.975Z,969.85
2019-01-27T01:33:31.121Z,969.78
2019-01-27T01:34:31.244Z,969.67
2019-01-27T01:35:31.375Z,969.76
2019-01-27T01:36:31.502Z,969.74
2019-01-27T01:37:31.627Z,969.72
2019-01-27T01:38:31.762Z,969.73
2019-01-27T01:39:31.886Z,969.68
2019-01-27T01:40:32.023Z,969.60
2019-01-27T01:41:32.155Z,969.56
2019-01-27T01:42:32.283Z,969.52
2019-01-27T01:43:32.411Z,969.56
2019-01-27T01:44:32.541Z,969.52
2019-01-27T01:45:32.669Z,969.43
2019-01-27T01:46:32.792Z,969.52
2019-01-27T01:47:32.916Z,969.46
2019-01-27T01:48:33.046Z,969.38
2019-01-27T01:49:33.166Z,969.33
2019-01-27T01:50:33.295Z,969.35
2019-01-27T01:51:33.423Z,969.31
2019-01-27T01:52:33.554Z,969.30
2019-01-27T01:53:33.686Z,969.36
2019-01-27T01:54:33.808Z,969.26
2019-01-27T01:55:33.974Z,969.13
2019-01-27T01:56:34.098Z,969.19
2019-01-27T01:57:34.233Z,969.15
2019-01-27T01:58:34.363Z,969.15
2019-01-27T01:59:34.483Z,969.06
2019-01-27T02:00:34.611Z,969.09
2019-01-27T02:01:34.738Z,969.07
2019-01-27T02:02:34.869Z,969.01
2019-01-27T02:03:34.997Z,969.06
2019-01-27T02:04:35.127Z,968.94
2019-01-27T02:05:35.251Z,968.92
2019-01-27T02:06:35.381Z,968.89
2019-01-27T02:07:35.515Z,968.90
2019-01-27T02:08:35.643Z,968.86
2019-01-27T02:09:35.773Z,968.98
2019-01-27T02:10:35.902Z,968.93
2019-01-27T02:11:36.029Z,968.86
2019-01-27T02:12:36.152Z,968.85
2019-01-27T02:13:36.283Z,968.85
2019-01-27T02:14:36.405Z,968.85
2019-01-27T02:15:36.543Z,968.80
2019-01-27T02:16:36.666Z,968.73
2019-01-27T02:17:36.793Z,968.76
2019-01-27T02:18:36.922Z,968.74
2019-01-27T02:19:37.061Z,968.69
2019-01-27T02:20:37.190Z,968.64
2019-01-27T02:21:37.319Z,968.62
2019-01-27T02:22:37.450Z,968.60
2019-01-27T02:23:37.578Z,968.51
2019-01-27T02:24:37.701Z,968.49
2019-01-27T02:25:37.831Z,968.63
2019-01-27T02:26:37.960Z,968.44
2019-01-27T02:27:38.090Z,968.45
2019-01-27T02:28:38.217Z,968.46
2019-01-27T02:29:38.345Z,968.36
2019-01-27T02:30:38.470Z,968.35
2019-01-27T02:31:38.602Z,968.30
2019-01-27T02:32:38.725Z,968.28
2019-01-27T02:33:38.857Z,968.28
2019-01-27T02:34:38.990Z,968.26
2019-01-27T02:35:39.122Z,968.26
2019-01-27T02:36:39.247Z,968.14
2019-01-27T02:37:39.378Z,968.19
2019-01-27T02:38:39.502Z,968.14
2019-01-27T02:39:39.630Z,968.24
2019-01-27T02:40:39.759Z,968.14
2019-01-27T02:41:39.882Z,968.18
2019-01-27T02:42:40.015Z,968.13
2019-01-27T02:43:40.142Z,968.15
2019-01-27T02:44:40.266Z,968.13
2019-01-27T02:45:40.396Z,968.11
2019-01-27T02:46:40.520Z,968.06
2019-01-27T02:47:40.649Z,968.04
2019-01-27T02:48:40.775Z,968.04
2019-01-27T02:49:40.895Z,968.04
2019-01-27T02:50:41.021Z,968.01
2019-01-27T02:51:41.145Z,967.98
2019-01-27T02:52:41.277Z,967.97
2019-01-27T02:53:41.407Z,967.93
2019-01-27T02:54:41.543Z,967.92
2019-01-27T02:55:41.665Z,968.04
2019-01-27T02:56:41.794Z,967.92
2019-01-27T02:57:41.922Z,967.85
2019-01-27T02:58:42.048Z,967.86
2019-01-27T02:59:42.179Z,967.84
2019-01-27T03:00:42.306Z,967.82
2019-01-27T03:01:42.452Z,967.77
2019-01-27T03:02:42.559Z,967.77
2019-01-27T03:03:42.686Z,967.84
2019-01-27T03:04:42.815Z,967.84
2019-01-27T03:05:42.952Z,967.74
2019-01-27T03:06:43.084Z,967.71
2019-01-27T03:07:43.211Z,967.70
2019-01-27T03:08:43.335Z,967.66
2019-01-27T03:09:43.474Z,967.66
2019-01-27T03:10:43.636Z,967.69
2019-01-27T03:11:43.722Z,967.62
2019-01-27T03:12:43.853Z,967.56
2019-01-27T03:13:43.972Z,967.56
2019-01-27T03:14:44.109Z,967.62
2019-01-27T03:15:44.233Z,967.51
2019-01-27T03:16:44.366Z,967.44
2019-01-27T03:17:44.492Z,967.42
2019-01-27T03:18:44.620Z,967.53
2019-01-27T03:19:44.746Z,967.47
2019-01-27T03:20:44.875Z,967.35
2019-01-27T03:21:45.003Z,967.40
2019-01-27T03:22:45.140Z,967.46
2019-01-27T03:23:45.268Z,967.38
2019-01-27T03:24:45.395Z,967.53
2019-01-27T03:25:45.521Z,967.35
2019-01-27T03:26:45.653Z,967.28
2019-01-27T03:27:45.790Z,967.40
2019-01-27T03:28:45.908Z,967.23
2019-01-27T03:29:46.035Z,967.30
2019-01-27T03:30:46.157Z,967.17
2019-01-27T03:31:46.286Z,967.12
2019-01-27T03:32:46.436Z,967.21
2019-01-27T03:33:46.543Z,967.14
2019-01-27T03:34:46.669Z,967.16
2019-01-27T03:35:46.796Z,967.15
2019-01-27T03:36:46.927Z,967.11
2019-01-27T03:37:47.054Z,967.35
2019-01-27T03:38:47.179Z,967.03
2019-01-27T03:39:47.307Z,967.06
2019-01-27T03:40:47.438Z,967.02
2019-01-27T03:41:47.565Z,966.99
2019-01-27T03:42:47.710Z,967.02
2019-01-27T03:43:47.897Z,966.93
2019-01-27T03:44:47.898Z,966.97
2019-01-27T03:45:48.027Z,966.94
2019-01-27T03:46:48.155Z,966.86
2019-01-27T03:47:48.287Z,966.81
2019-01-27T03:48:48.413Z,966.78
2019-01-27T03:49:48.537Z,966.90
2019-01-27T03:50:48.670Z,966.85
2019-01-27T03:51:48.789Z,966.74
2019-01-27T03:52:48.915Z,966.79
2019-01-27T03:53:49.043Z,966.78
2019-01-27T03:54:49.166Z,966.74
2019-01-27T03:55:49.292Z,966.75
2019-01-27T03:56:49.425Z,966.67
2019-01-27T03:57:50.482Z,966.78
2019-01-27T03:58:49.634Z,966.61
2019-01-27T03:59:49.759Z,966.80
2019-01-27T04:00:49.888Z,966.70
2019-01-27T04:01:50.017Z,966.54
2019-01-27T04:02:50.147Z,966.68
2019-01-27T04:03:50.269Z,966.60
2019-01-27T04:04:50.403Z,966.48
2019-01-27T04:05:50.528Z,966.50
2019-01-27T04:06:50.657Z,966.41
2019-01-27T04:07:50.781Z,966.46
2019-01-27T04:08:50.913Z,966.41
2019-01-27T04:09:51.042Z,966.38
2019-01-27T04:10:51.174Z,966.32
2019-01-27T04:11:51.299Z,966.37
2019-01-27T04:12:51.425Z,966.40
2019-01-27T04:13:51.555Z,966.37
2019-01-27T04:14:51.685Z,966.36
2019-01-27T04:15:51.814Z,966.32
2019-01-27T04:16:51.935Z,966.37
2019-01-27T04:17:52.066Z,966.28
2019-01-27T04:18:52.197Z,966.25
2019-01-27T04:19:52.320Z,966.28
2019-01-27T04:20:52.448Z,966.23
2019-01-27T04:21:52.585Z,966.22
2019-01-27T04:22:52.707Z,966.24
2019-01-27T04:23:52.839Z,966.19
2019-01-27T04:24:52.970Z,966.22
2019-01-27T04:25:53.099Z,966.20
2019-01-27T04:26:53.222Z,966.17
2019-01-27T04:27:53.356Z,966.21
2019-01-27T04:28:53.493Z,966.14
2019-01-27T04:29:53.628Z,966.18
2019-01-27T04:30:53.762Z,966.13
2019-01-27T04:31:53.895Z,966.14
2019-01-27T04:32:54.044Z,966.11
2019-01-27T04:33:54.147Z,966.15
2019-01-27T04:34:54.276Z,966.03
2019-01-27T04:35:54.410Z,966.05
2019-01-27T04:36:54.535Z,966.03
2019-01-27T04:37:54.664Z,965.97
2019-01-27T04:38:54.800Z,966.01
2019-01-27T04:39:54.931Z,965.92
2019-01-27T04:40:55.056Z,965.92
2019-01-27T04:41:55.182Z,965.88
2019-01-27T04:42:55.324Z,965.96
2019-01-27T04:43:56.488Z,965.90
2019-01-27T04:44:55.569Z,965.82
2019-01-27T04:45:55.700Z,965.89
2019-01-27T04:46:55.828Z,965.82
2019-01-27T04:47:55.955Z,965.80
2019-01-27T04:48:56.101Z,965.82
2019-01-27T04:49:56.220Z,965.77
2019-01-27T04:50:56.348Z,965.83
2019-01-27T04:51:56.479Z,965.72
2019-01-27T04:52:56.600Z,965.76
2019-01-27T04:53:56.730Z,965.74
2019-01-27T04:54:56.861Z,965.75
2019-01-27T04:55:56.993Z,965.72
2019-01-27T04:56:57.116Z,965.72
2019-01-27T04:57:57.248Z,965.68
2019-01-27T04:58:57.372Z,965.72
2019-01-27T04:59:57.502Z,965.69
2019-01-27T05:00:57.629Z,965.69
2019-01-27T05:01:57.760Z,965.67
2019-01-27T05:02:57.895Z,965.73
2019-01-27T05:03:58.036Z,965.61
2019-01-27T05:04:58.165Z,965.66
2019-01-27T05:05:58.970Z,965.66
2019-01-27T05:06:58.406Z,965.66
2019-01-27T05:07:58.530Z,965.50
2019-01-27T05:08:58.674Z,965.62
2019-01-27T05:09:58.802Z,965.58
2019-01-27T05:10:58.924Z,965.52
2019-01-27T05:11:59.057Z,965.42
2019-01-27T05:12:59.188Z,965.49
2019-01-27T05:13:59.313Z,965.48
2019-01-27T05:14:59.444Z,965.55
2019-01-27T05:15:59.572Z,965.44
2019-01-27T05:16:59.697Z,965.48
2019-01-27T05:17:59.825Z,965.41
2019-01-27T05:18:59.954Z,965.44
2019-01-27T05:20:00.183Z,965.41
2019-01-27T05:21:00.226Z,965.38
2019-01-27T05:22:00.356Z,965.44
2019-01-27T05:23:00.480Z,965.45
2019-01-27T05:24:00.607Z,965.45
2019-01-27T05:25:00.750Z,965.36
2019-01-27T05:26:00.877Z,965.40
2019-01-27T05:27:01.008Z,965.45
2019-01-27T05:28:01.136Z,965.39
2019-01-27T05:29:01.270Z,965.45
2019-01-27T05:30:01.397Z,965.34
2019-01-27T05:31:01.523Z,965.33
2019-01-27T05:32:01.655Z,965.35
2019-01-27T05:33:01.794Z,965.32
2019-01-27T05:34:01.899Z,965.25
2019-01-27T05:35:02.025Z,965.32
2019-01-27T05:36:02.155Z,965.44
2019-01-27T05:37:02.293Z,965.29
2019-01-27T05:38:02.417Z,965.41
2019-01-27T05:39:02.545Z,965.31
2019-01-27T05:40:02.680Z,965.25
2019-01-27T05:41:02.803Z,965.25
2019-01-27T05:42:02.936Z,965.22
2019-01-27T05:43:03.058Z,965.17
2019-01-27T05:44:03.194Z,965.14
2019-01-27T05:45:03.323Z,965.14
2019-01-27T05:46:03.452Z,965.14
2019-01-27T05:47:03.577Z,965.08
2019-01-27T05:48:03.708Z,965.13
2019-01-27T05:49:03.836Z,965.07
2019-01-27T05:50:03.961Z,965.10
2019-01-27T05:51:04.087Z,965.10
2019-01-27T05:52:04.212Z,965.10
2019-01-27T05:53:04.344Z,965.03
2019-01-27T05:54:04.477Z,965.09
2019-01-27T05:55:04.606Z,964.99
2019-01-27T05:56:04.737Z,965.03
2019-01-27T05:57:04.873Z,965.04
2019-01-27T05:58:05.005Z,965.01
2019-01-27T05:59:05.135Z,964.95
2019-01-27T06:00:05.257Z,964.91
2019-01-27T06:01:05.386Z,964.95
2019-01-27T06:02:05.508Z,964.99
2019-01-27T06:03:05.645Z,964.89
2019-01-27T06:04:05.779Z,964.90
2019-01-27T06:05:05.903Z,964.92
2019-01-27T06:06:06.027Z,964.86
2019-01-27T06:07:06.157Z,964.95
2019-01-27T06:08:06.285Z,964.83
2019-01-27T06:09:06.426Z,964.88
2019-01-27T06:10:06.538Z,964.88
2019-01-27T06:11:06.680Z,964.88
2019-01-27T06:12:06.807Z,964.80
2019-01-27T06:13:06.933Z,964.82
2019-01-27T06:14:07.065Z,964.88
2019-01-27T06:15:07.193Z,964.84
2019-01-27T06:16:07.325Z,964.83
2019-01-27T06:17:07.446Z,964.84
2019-01-27T06:19:39.388Z,964.78
2019-01-27T06:20:39.508Z,964.77
2019-01-27T06:21:39.647Z,964.73
2019-01-27T06:22:39.753Z,964.66
2019-01-27T06:23:39.879Z,964.66
2019-01-27T06:24:40.081Z,964.63
2019-01-27T06:25:40.103Z,964.58
2019-01-27T06:26:40.203Z,964.58
2019-01-27T06:27:40.353Z,964.57
2019-01-27T06:28:40.465Z,964.63
2019-01-27T06:29:40.580Z,964.44
2019-01-27T06:30:40.701Z,964.55
2019-01-27T06:31:40.829Z,964.51
2019-01-27T06:32:40.960Z,964.51
2019-01-27T06:33:41.089Z,964.51
2019-01-27T06:34:41.223Z,964.42
2019-01-27T06:35:41.340Z,964.47
2019-01-27T06:36:41.467Z,964.42
2019-01-27T06:37:41.597Z,964.47
2019-01-27T06:38:42.625Z,964.44
2019-01-27T06:39:41.905Z,964.38
2019-01-27T06:40:42.037Z,964.37
2019-01-27T06:41:42.184Z,964.45
2019-01-27T06:42:42.304Z,964.28
2019-01-27T06:43:42.433Z,964.33
2019-01-27T06:44:42.555Z,964.44
2019-01-27T06:45:42.684Z,964.19
2019-01-27T06:46:42.813Z,964.15
2019-01-27T06:47:42.940Z,964.14
2019-01-27T06:48:43.063Z,964.19
2019-01-27T06:49:43.193Z,964.16
2019-01-27T06:50:43.320Z,964.26
2019-01-27T06:51:43.443Z,964.31
2019-01-27T06:52:43.568Z,964.34
2019-01-27T06:53:43.698Z,964.34
2019-01-27T06:54:43.819Z,964.27
2019-01-27T06:55:43.961Z,964.25
2019-01-27T06:56:44.112Z,964.47
2019-01-27T06:57:44.216Z,964.32
2019-01-27T06:58:45.117Z,964.26
2019-01-27T06:59:44.528Z,964.33
2019-01-27T07:00:44.666Z,964.21
2019-01-27T07:01:44.786Z,964.24
2019-01-27T07:02:44.920Z,964.13
2019-01-27T07:03:45.047Z,964.26
2019-01-27T07:04:45.169Z,964.08
2019-01-27T07:05:45.307Z,964.11
2019-01-27T07:06:45.433Z,964.10
2019-01-27T07:07:45.558Z,964.10
2019-01-27T07:08:45.694Z,964.09
2019-01-27T07:09:45.818Z,964.00
2019-01-27T07:10:45.948Z,964.04
2019-01-27T07:11:46.076Z,963.96
2019-01-27T07:12:46.205Z,964.24
2019-01-27T07:13:46.341Z,964.00
2019-01-27T07:14:46.470Z,963.97
2019-01-27T07:15:46.623Z,963.98
2019-01-27T07:16:46.749Z,963.94
2019-01-27T07:17:46.882Z,963.98
2019-01-27T07:18:47.012Z,964.05
2019-01-27T07:19:47.145Z,963.96
2019-01-27T07:20:47.271Z,963.95
2019-01-27T07:21:47.396Z,964.02
2019-01-27T07:22:47.522Z,963.95
2019-01-27T07:23:47.643Z,963.93
2019-01-27T07:24:47.767Z,963.88
2019-01-27T07:25:47.894Z,963.99
2019-01-27T07:26:48.020Z,963.87
2019-01-27T07:27:48.153Z,963.92
2019-01-27T07:28:48.280Z,963.81
2019-01-27T07:29:48.407Z,963.85
2019-01-27T07:30:48.535Z,963.81
2019-01-27T07:31:48.663Z,963.75
2019-01-27T07:32:48.790Z,963.72
2019-01-27T07:33:48.912Z,963.71
2019-01-27T07:34:49.356Z,963.64
2019-01-27T07:35:49.179Z,963.69
2019-01-27T07:36:49.305Z,963.69
2019-01-27T07:37:49.426Z,963.70
2019-01-27T07:38:49.551Z,963.61
2019-01-27T07:39:49.688Z,963.58
2019-01-27T07:40:49.815Z,963.53
2019-01-27T07:41:50.630Z,963.67
2019-01-27T07:44:21.871Z,963.48
2019-01-27T07:45:21.958Z,963.65
2019-01-27T07:46:22.085Z,963.82
2019-01-27T07:47:22.217Z,963.65
2019-01-27T07:48:22.344Z,963.76
2019-01-27T07:49:22.470Z,963.62
2019-01-27T07:50:22.603Z,963.72
2019-01-27T07:51:22.742Z,963.76
2019-01-27T07:52:22.869Z,963.71
2019-01-27T07:53:22.992Z,963.69
2019-01-27T07:54:23.115Z,963.70
2019-01-27T07:55:23.249Z,963.55
2019-01-27T07:56:23.376Z,963.53
2019-01-27T07:57:23.498Z,963.46
2019-01-27T07:58:23.628Z,963.45
2019-01-27T07:59:23.755Z,963.40
2019-01-27T08:00:23.933Z,963.33
2019-01-27T08:01:24.071Z,963.39
2019-01-27T08:02:24.205Z,963.43
2019-01-27T08:03:24.337Z,963.46
2019-01-27T08:04:24.589Z,963.46
2019-01-27T08:05:24.562Z,963.41
2019-01-27T08:06:24.702Z,963.27
2019-01-27T08:07:24.824Z,963.30
2019-01-27T08:08:24.951Z,963.42
2019-01-27T08:09:25.086Z,963.40
2019-01-27T08:10:25.210Z,963.42
2019-01-27T08:11:25.457Z,963.58
2019-01-27T08:12:25.537Z,963.41
2019-01-27T08:13:25.666Z,963.43
2019-01-27T08:14:25.815Z,963.54
2019-01-27T08:15:25.919Z,963.50
2019-01-27T08:16:26.047Z,963.36
2019-01-27T08:17:26.175Z,963.39
2019-01-27T08:18:26.310Z,963.47
2019-01-27T08:19:26.435Z,963.40
2019-01-27T08:20:26.615Z,963.42
2019-01-27T08:21:26.745Z,963.56
2019-01-27T08:22:26.870Z,963.29
2019-01-27T08:23:27.041Z,963.41
2019-01-27T08:24:27.211Z,963.31
2019-01-27T08:25:27.328Z,963.35
2019-01-27T08:26:27.481Z,963.24
2019-01-27T08:27:27.658Z,963.28
2019-01-27T08:28:27.752Z,963.35
2019-01-27T08:29:27.885Z,963.26
2019-01-27T08:30:28.027Z,963.38
2019-01-27T08:31:28.152Z,963.37
2019-01-27T08:32:28.320Z,963.27
2019-01-27T08:33:28.457Z,963.47
2019-01-27T08:34:28.589Z,963.36
2019-01-27T08:35:28.713Z,963.24
2019-01-27T08:36:28.839Z,963.19
2019-01-27T08:37:28.966Z,963.44
2019-01-27T08:38:29.107Z,963.29
2019-01-27T08:39:29.237Z,963.34
2019-01-27T08:40:29.531Z,963.27
2019-01-27T08:41:29.454Z,963.33
2019-01-27T08:42:29.718Z,963.22
2019-01-27T08:45:01.677Z,963.18
2019-01-27T08:46:01.837Z,963.10
2019-01-27T08:47:01.961Z,963.18
2019-01-27T08:48:02.086Z,963.22
2019-01-27T08:49:02.231Z,963.24
2019-01-27T08:50:03.281Z,963.38
2019-01-27T08:51:02.482Z,963.21
2019-01-27T08:52:02.615Z,963.13
2019-01-27T08:53:02.754Z,963.20
2019-01-27T08:54:02.879Z,963.22
2019-01-27T08:55:03.006Z,963.33
2019-01-27T08:56:03.157Z,963.20
2019-01-27T08:57:03.292Z,963.17
2019-01-27T08:58:03.419Z,963.14
2019-01-27T08:59:03.575Z,963.24
2019-01-27T09:00:03.700Z,963.22
2019-01-27T09:01:04.454Z,963.16
2019-01-27T09:02:03.948Z,963.12
2019-01-27T09:03:04.080Z,963.13
2019-01-27T09:04:04.208Z,963.13
2019-01-27T09:05:04.943Z,963.07
2019-01-27T09:06:04.455Z,963.07
2019-01-27T09:07:04.575Z,963.16
2019-01-27T09:08:04.719Z,963.12
2019-01-27T09:09:04.872Z,962.99
2019-01-27T09:10:05.512Z,962.99
2019-01-27T09:11:05.126Z,962.84
2019-01-27T09:12:05.252Z,963.00
2019-01-27T09:13:11.183Z,962.85
2019-01-27T09:14:05.554Z,962.93
2019-01-27T09:15:05.685Z,962.96
2019-01-27T09:16:05.812Z,962.85
2019-01-27T09:17:05.960Z,962.85
2019-01-27T09:18:06.083Z,962.83
2019-01-27T09:19:06.223Z,963.08
2019-01-27T09:20:06.356Z,962.83
2019-01-27T09:21:06.524Z,962.90
2019-01-27T09:22:06.647Z,962.83
2019-01-27T09:23:06.778Z,962.89
2019-01-27T09:24:06.928Z,962.82
2019-01-27T09:25:07.056Z,962.96
2019-01-27T09:26:07.181Z,962.85
2019-01-27T09:27:07.310Z,962.85
2019-01-27T09:28:07.446Z,962.74
2019-01-27T09:29:07.569Z,962.83
2019-01-27T09:30:07.697Z,962.84
2019-01-27T09:31:07.834Z,962.72
2019-01-27T09:32:07.981Z,962.79
2019-01-27T09:33:08.101Z,962.78
2019-01-27T09:34:13.157Z,962.81
2019-01-27T09:35:08.384Z,962.74
2019-01-27T09:36:08.535Z,962.70
2019-01-27T09:37:08.655Z,962.71
2019-01-27T09:38:08.858Z,962.72
2019-01-27T09:39:08.861Z,962.71
2019-01-27T09:40:09.052Z,962.72
2019-01-27T09:41:09.247Z,962.63
2019-01-27T09:42:09.283Z,962.76
2019-01-27T09:43:09.412Z,962.69
2019-01-27T09:44:09.539Z,962.71
2019-01-27T09:45:09.693Z,962.88
2019-01-27T09:46:11.498Z,962.89
2019-01-27T09:47:09.952Z,962.85
2019-01-27T09:48:10.133Z,962.77
2019-01-27T09:49:10.237Z,962.62
2019-01-27T09:50:10.369Z,962.64
2019-01-27T09:51:10.555Z,962.67
2019-01-27T09:52:10.771Z,962.85
2019-01-27T09:53:10.782Z,962.90
2019-01-27T09:54:10.899Z,962.70
2019-01-27T09:55:11.034Z,962.66
2019-01-27T09:56:11.206Z,962.64
2019-01-27T09:57:12.129Z,962.71
2019-01-27T09:58:11.443Z,962.64
2019-01-27T09:59:11.563Z,962.59
2019-01-27T10:00:11.717Z,962.61
2019-01-27T10:01:11.837Z,962.67
2019-01-27T10:02:11.967Z,962.72
2019-01-27T10:03:12.117Z,962.67
2019-01-27T10:04:12.840Z,962.67
2019-01-27T10:05:12.371Z,962.71
2019-01-27T10:06:12.525Z,962.76
2019-01-27T10:07:12.792Z,962.62
2019-01-27T10:08:12.799Z,962.51
2019-01-27T10:09:12.921Z,962.54
2019-01-27T10:10:13.060Z,962.63
2019-01-27T10:11:13.181Z,962.50
2019-01-27T10:12:13.320Z,962.56
2019-01-27T10:13:13.446Z,962.71
2019-01-27T10:14:13.614Z,962.52
2019-01-27T10:15:13.721Z,962.43
2019-01-27T10:16:13.834Z,962.45
2019-01-27T10:17:13.971Z,962.47
2019-01-27T10:18:14.135Z,962.54
2019-01-27T10:19:14.239Z,962.50
2019-01-27T10:20:14.374Z,962.45
2019-01-27T10:21:14.513Z,962.47
2019-01-27T10:22:14.642Z,962.54
2019-01-27T10:23:14.770Z,962.50
2019-01-27T10:24:14.916Z,962.51
2019-01-27T10:25:16.104Z,962.60
2019-01-27T10:26:15.154Z,962.45
2019-01-27T10:27:15.286Z,962.44
2019-01-27T10:28:15.423Z,962.39
2019-01-27T10:29:15.549Z,962.49
2019-01-27T10:30:15.674Z,962.44
2019-01-27T10:31:15.804Z,962.54
2019-01-27T10:32:15.938Z,962.34
2019-01-27T10:33:16.065Z,962.32
2019-01-27T10:34:16.193Z,962.32
2019-01-27T10:35:16.322Z,962.29
2019-01-27T10:36:16.454Z,962.32
2019-01-27T10:37:16.584Z,962.39
2019-01-27T10:38:16.715Z,962.29
2019-01-27T10:39:16.837Z,962.21
2019-01-27T10:40:17.202Z,962.36
2019-01-27T10:41:17.156Z,962.28
2019-01-27T10:42:17.287Z,962.17
2019-01-27T10:43:17.405Z,962.31
2019-01-27T10:44:17.543Z,962.18
2019-01-27T10:45:17.688Z,962.10
2019-01-27T10:46:17.817Z,962.18
2019-01-27T10:47:17.945Z,962.17
2019-01-27T10:48:18.441Z,962.11
2019-01-27T10:49:18.210Z,962.21
2019-01-27T10:50:18.333Z,962.10
2019-01-27T10:51:18.497Z,962.19
2019-01-27T10:52:18.629Z,962.10
2019-01-27T10:53:20.913Z,962.10
2019-01-27T10:54:18.900Z,962.03
2019-01-27T10:55:19.031Z,962.18
2019-01-27T10:56:19.165Z,962.11
2019-01-27T10:57:19.289Z,962.19
2019-01-27T10:58:19.431Z,962.13
2019-01-27T10:59:19.556Z,962.12
2019-01-27T11:00:19.695Z,962.17
2019-01-27T11:01:19.820Z,962.17
2019-01-27T11:02:19.954Z,962.16
2019-01-27T11:03:20.075Z,962.12
2019-01-27T11:04:20.208Z,962.08
2019-01-27T11:05:20.342Z,962.18
2019-01-27T11:06:20.467Z,962.16
2019-01-27T11:07:20.602Z,962.17
2019-01-27T11:08:20.741Z,962.00
2019-01-27T11:09:20.874Z,962.05
2019-01-27T11:10:21.016Z,962.00
2019-01-27T11:11:21.146Z,962.03
2019-01-27T11:12:21.275Z,962.06
2019-01-27T11:13:21.405Z,961.94
2019-01-27T11:14:21.534Z,961.96
2019-01-27T11:15:21.696Z,961.97
2019-01-27T11:16:21.827Z,961.93
2019-01-27T11:17:22.020Z,962.03
2019-01-27T11:18:22.069Z,961.92
2019-01-27T11:19:22.197Z,961.89
2019-01-27T11:20:22.330Z,961.88
2019-01-27T11:21:22.462Z,962.05
2019-01-27T11:22:22.589Z,961.99
2019-01-27T11:23:22.732Z,961.85
2019-01-27T11:24:22.852Z,961.87
2019-01-27T11:25:22.985Z,961.85
2019-01-27T11:26:23.109Z,961.81
2019-01-27T11:27:23.245Z,961.75
2019-01-27T11:28:23.377Z,961.77
2019-01-27T11:29:23.505Z,961.80
2019-01-27T11:30:23.633Z,961.73
2019-01-27T11:31:23.784Z,961.90
2019-01-27T11:32:23.918Z,961.67
2019-01-27T11:33:24.056Z,961.63
2019-01-27T11:34:24.185Z,961.65
2019-01-27T11:35:24.311Z,961.67
2019-01-27T11:36:24.458Z,961.61
2019-01-27T11:37:24.568Z,961.52
2019-01-27T11:38:24.699Z,961.51
2019-01-27T11:39:24.825Z,961.53
2019-01-27T11:40:24.960Z,961.53
2019-01-27T11:41:25.094Z,961.57
2019-01-27T11:42:25.239Z,961.72
2019-01-27T11:43:25.366Z,961.47
2019-01-27T11:44:25.509Z,961.63
2019-01-27T11:45:25.616Z,961.70
2019-01-27T11:46:25.729Z,961.52
2019-01-27T11:47:25.879Z,961.60
2019-01-27T11:48:25.996Z,961.44
2019-01-27T11:49:26.128Z,961.49
2019-01-27T11:50:26.274Z,961.50
2019-01-27T11:51:26.406Z,961.53
2019-01-27T11:52:26.538Z,961.46
2019-01-27T11:53:27.208Z,961.43
2019-01-27T11:55:58.533Z,961.42
2019-01-27T11:56:58.645Z,961.41
2019-01-27T11:57:58.790Z,961.36
2019-01-27T11:58:58.918Z,961.45
2019-01-27T11:59:59.054Z,961.45
2019-01-27T12:00:59.173Z,961.39
2019-01-27T12:01:59.335Z,961.54
2019-01-27T12:02:59.483Z,961.49
2019-01-27T12:03:59.604Z,961.31
2019-01-27T12:04:59.737Z,961.36
2019-01-27T12:05:59.866Z,961.42
2019-01-27T12:06:59.994Z,961.42
2019-01-27T12:08:00.122Z,961.30
2019-01-27T12:09:00.285Z,961.25
2019-01-27T12:10:00.388Z,961.29
2019-01-27T12:11:00.515Z,961.34
2019-01-27T12:12:00.653Z,961.22
2019-01-27T12:13:00.779Z,961.23
2019-01-27T12:14:00.922Z,961.27
2019-01-27T12:15:01.046Z,961.15
2019-01-27T12:16:01.182Z,961.12
2019-01-27T12:17:01.316Z,961.15
2019-01-27T12:18:01.446Z,961.26
2019-01-27T12:19:01.586Z,961.15
2019-01-27T12:20:01.719Z,961.18
2019-01-27T12:21:01.847Z,961.14
2019-01-27T12:22:01.979Z,961.09
2019-01-27T12:23:02.111Z,961.12
2019-01-27T12:24:02.246Z,961.09
2019-01-27T12:25:02.376Z,961.08
2019-01-27T12:26:02.503Z,961.01
2019-01-27T12:27:02.631Z,961.01
2019-01-27T12:28:02.765Z,961.01
2019-01-27T12:29:02.893Z,961.04
2019-01-27T12:30:03.017Z,960.98
2019-01-27T12:31:03.162Z,961.05
2019-01-27T12:32:03.300Z,961.12
2019-01-27T12:33:03.428Z,960.90
2019-01-27T12:34:03.556Z,960.94
2019-01-27T12:35:03.705Z,961.01
2019-01-27T12:36:03.837Z,961.02
2019-01-27T12:37:03.970Z,960.99
2019-01-27T12:38:04.097Z,960.95